createdAt,value
2018-02-07T00:00:54.409Z,14.8
2018-02-07T00:01:56.939Z,14.7
2018-02-07T00:02:59.417Z,14.7
2018-02-07T00:04:01.998Z,14.7
2018-02-07T00:05:04.520Z,14.7
2018-02-07T00:06:06.972Z,14.6
2018-02-07T00:07:09.477Z,14.6
2018-02-07T00:08:11.971Z,14.4
2018-02-07T00:09:14.430Z,14.4
2018-02-07T00:10:16.929Z,14.3
2018-02-07T00:11:19.419Z,14.2
2018-02-07T00:12:21.941Z,14.1
2018-02-07T00:13:24.377Z,14
2018-02-07T00:14:26.862Z,13.9
2018-02-07T00:15:29.373Z,13.9
2018-02-07T00:16:31.876Z,13.8
2018-02-07T00:17:36.379Z,13.9
2018-02-07T00:18:38.784Z,13.8
2018-02-07T00:19:41.246Z,13.7
2018-02-07T00:20:43.705Z,13.6
2018-02-07T00:21:46.185Z,13.6
2018-02-07T00:22:48.592Z,13.7
2018-02-07T00:23:51.132Z,13.8
2018-02-07T00:24:53.614Z,13.9
2018-02-07T00:25:56.106Z,13.9
2018-02-07T00:26:58.654Z,13.8
2018-02-07T00:28:01.472Z,13.8
2018-02-07T00:29:03.990Z,13.8
2018-02-07T00:30:06.509Z,13.7
2018-02-07T00:31:08.965Z,13.8
2018-02-07T00:32:11.483Z,13.7
2018-02-07T00:33:14.054Z,13.6
2018-02-07T00:34:16.556Z,13.6
2018-02-07T00:35:18.980Z,13.6
2018-02-07T00:36:21.441Z,13.6
2018-02-07T00:37:23.911Z,13.6
2018-02-07T00:38:26.416Z,13.6
2018-02-07T00:39:28.833Z,13.6
2018-02-07T00:40:31.323Z,13.6
2018-02-07T00:41:33.751Z,13.7
2018-02-07T00:42:36.193Z,13.4
2018-02-07T00:43:38.591Z,13.3
2018-02-07T00:44:41.041Z,13.1
2018-02-07T00:45:43.552Z,13
2018-02-07T00:46:45.984Z,12.9
2018-02-07T00:47:48.777Z,13
2018-02-07T00:48:51.233Z,13.1
2018-02-07T00:49:53.683Z,13.1
2018-02-07T00:50:56.161Z,13.1
2018-02-07T00:51:58.566Z,13
2018-02-07T00:53:01.061Z,13.1
2018-02-07T00:54:03.540Z,13.1
2018-02-07T00:55:06.033Z,13.2
2018-02-07T00:56:08.503Z,13.3
2018-02-07T00:57:11.050Z,13.4
2018-02-07T00:58:13.593Z,13.5
2018-02-07T00:59:16.054Z,13.5
2018-02-07T01:00:18.752Z,13.5
2018-02-07T01:01:21.175Z,13.6
2018-02-07T01:02:23.733Z,13.8
2018-02-07T01:03:26.284Z,13.8
2018-02-07T01:04:28.834Z,13.8
2018-02-07T01:05:31.279Z,14.1
2018-02-07T01:06:33.764Z,14.1
2018-02-07T01:07:36.220Z,14.2
2018-02-07T01:08:38.672Z,14.2
2018-02-07T01:09:41.162Z,14.3
2018-02-07T01:10:43.639Z,14.4
2018-02-07T01:11:46.165Z,14.4
2018-02-07T01:12:48.629Z,14.5
2018-02-07T01:13:51.098Z,14.6
2018-02-07T01:14:53.519Z,14.7
2018-02-07T01:15:56.071Z,14.7
2018-02-07T01:16:58.487Z,14.8
2018-02-07T01:18:03.539Z,14.8
2018-02-07T01:19:06.079Z,14.9
2018-02-07T01:20:08.571Z,15
2018-02-07T01:21:11.106Z,15.1
2018-02-07T01:22:13.592Z,15
2018-02-07T01:23:16.048Z,15.1
2018-02-07T01:24:18.522Z,15
2018-02-07T01:25:20.936Z,15.1
2018-02-07T01:26:23.432Z,15.1
2018-02-07T01:27:25.952Z,15.1
2018-02-07T01:28:28.424Z,15.1
2018-02-07T01:29:30.909Z,15
2018-02-07T01:30:33.449Z,15.1
2018-02-07T01:31:36.081Z,15
2018-02-07T01:32:38.608Z,15
2018-02-07T01:33:40.990Z,15.1
2018-02-07T01:34:43.479Z,15.1
2018-02-07T01:35:45.920Z,15.1
2018-02-07T01:36:48.464Z,15
2018-02-07T01:37:50.878Z,15
2018-02-07T01:38:53.312Z,14.9
2018-02-07T01:39:55.786Z,14.9
2018-02-07T01:40:58.259Z,15
2018-02-07T01:42:00.767Z,14.9
2018-02-07T01:43:03.220Z,14.9
2018-02-07T01:44:05.690Z,14.9
2018-02-07T01:45:08.148Z,14.8
2018-02-07T01:46:10.549Z,14.7
2018-02-07T01:47:13.098Z,14.7
2018-02-07T01:48:15.584Z,14.8
2018-02-07T01:49:18.025Z,14.7
2018-02-07T01:50:20.504Z,14.7
2018-02-07T01:51:23.702Z,14.7
2018-02-07T01:52:26.127Z,14.6
2018-02-07T01:53:28.567Z,14.6
2018-02-07T01:54:31.053Z,14.6
2018-02-07T01:55:33.569Z,14.5
2018-02-07T01:56:38.131Z,14.5
2018-02-07T01:57:43.980Z,14.4
2018-02-07T01:58:46.796Z,14.4
2018-02-07T01:59:49.199Z,14.3
2018-02-07T02:00:51.769Z,14.3
2018-02-07T02:01:54.252Z,14.2
2018-02-07T02:02:56.691Z,14.2
2018-02-07T02:03:59.192Z,14.1
2018-02-07T02:05:01.675Z,14
2018-02-07T02:06:04.320Z,13.9
2018-02-07T02:07:06.794Z,13.9
2018-02-07T02:08:09.282Z,13.8
2018-02-07T02:09:11.756Z,13.8
2018-02-07T02:10:14.246Z,13.7
2018-02-07T02:11:16.687Z,13.7
2018-02-07T02:12:19.109Z,13.8
2018-02-07T02:13:21.626Z,13.8
2018-02-07T02:14:24.082Z,13.9
2018-02-07T02:15:26.634Z,13.9
2018-02-07T02:16:29.166Z,13.9
2018-02-07T02:17:31.643Z,13.9
2018-02-07T02:18:34.156Z,13.8
2018-02-07T02:19:36.694Z,13.8
2018-02-07T02:20:39.154Z,13.8
2018-02-07T02:21:41.644Z,13.7
2018-02-07T02:22:44.142Z,13.7
2018-02-07T02:23:46.649Z,13.7
2018-02-07T02:24:49.106Z,13.7
2018-02-07T02:25:51.507Z,13.6
2018-02-07T02:26:54.141Z,13.7
2018-02-07T02:27:56.612Z,13.7
2018-02-07T02:28:59.076Z,13.7
2018-02-07T02:30:01.556Z,13.7
2018-02-07T02:31:04.083Z,13.8
2018-02-07T02:32:06.642Z,13.7
2018-02-07T02:33:09.104Z,13.6
2018-02-07T02:34:11.754Z,13.4
2018-02-07T02:35:14.237Z,13.4
2018-02-07T02:36:16.754Z,13.4
2018-02-07T02:37:19.349Z,13.4
2018-02-07T02:38:22.772Z,13.3
2018-02-07T02:39:25.196Z,13.3
2018-02-07T02:40:27.650Z,13.3
2018-02-07T02:41:30.078Z,13.4
2018-02-07T02:42:32.534Z,13.4
2018-02-07T02:43:34.971Z,13.2
2018-02-07T02:44:37.376Z,13.1
2018-02-07T02:45:39.782Z,13.2
2018-02-07T02:46:42.219Z,13.3
2018-02-07T02:47:44.700Z,13.5
2018-02-07T02:48:47.132Z,13.5
2018-02-07T02:49:49.570Z,13.6
2018-02-07T02:50:52.020Z,13.8
2018-02-07T02:51:54.574Z,13.8
2018-02-07T02:52:57.010Z,13.8
2018-02-07T02:53:59.432Z,13.9
2018-02-07T02:55:01.949Z,14
2018-02-07T02:56:04.372Z,14.1
2018-02-07T02:57:06.837Z,14.2
2018-02-07T02:58:09.324Z,14.3
2018-02-07T02:59:11.757Z,14.4
2018-02-07T03:00:14.251Z,14.4
2018-02-07T03:01:16.690Z,14.5
2018-02-07T03:02:19.798Z,14.5
2018-02-07T03:03:22.987Z,14.6
2018-02-07T03:04:25.647Z,14.6
2018-02-07T03:05:28.081Z,14.6
2018-02-07T03:06:30.494Z,14.8
2018-02-07T03:07:32.954Z,14.9
2018-02-07T03:08:35.386Z,14.9
2018-02-07T03:09:37.810Z,15.1
2018-02-07T03:10:40.331Z,15.1
2018-02-07T03:11:42.816Z,15.1
2018-02-07T03:12:45.230Z,15.1
2018-02-07T03:13:47.779Z,15.1
2018-02-07T03:14:50.160Z,15.1
2018-02-07T03:15:52.599Z,15.2
2018-02-07T03:16:55.058Z,15.2
2018-02-07T03:17:57.470Z,15.3
2018-02-07T03:18:59.971Z,15.2
2018-02-07T03:20:02.515Z,15.1
2018-02-07T03:21:04.966Z,15.2
2018-02-07T03:22:07.498Z,15.3
2018-02-07T03:23:09.941Z,15.2
2018-02-07T03:24:12.432Z,15.2
2018-02-07T03:25:14.935Z,15.1
2018-02-07T03:26:17.383Z,15.1
2018-02-07T03:27:19.766Z,15.1
2018-02-07T03:28:22.140Z,15.1
2018-02-07T03:29:29.813Z,15.1
2018-02-07T03:30:32.280Z,15
2018-02-07T03:31:34.728Z,15
2018-02-07T03:32:37.238Z,14.9
2018-02-07T03:33:39.700Z,15
2018-02-07T03:34:42.158Z,14.9
2018-02-07T03:35:44.606Z,14.9
2018-02-07T03:36:47.181Z,14.9
2018-02-07T03:37:49.634Z,14.9
2018-02-07T03:38:52.105Z,14.9
2018-02-07T03:39:54.668Z,14.8
2018-02-07T03:40:57.196Z,14.7
2018-02-07T03:41:59.666Z,14.7
2018-02-07T03:43:02.180Z,14.7
2018-02-07T03:44:04.646Z,14.6
2018-02-07T03:45:07.206Z,14.5
2018-02-07T03:46:09.669Z,14.5
2018-02-07T03:47:17.400Z,14.5
2018-02-07T03:48:19.980Z,14.4
2018-02-07T03:49:22.430Z,14.5
2018-02-07T03:50:24.927Z,14.4
2018-02-07T03:51:27.340Z,14.3
2018-02-07T03:52:29.765Z,14.2
2018-02-07T03:53:32.214Z,14.2
2018-02-07T03:54:34.733Z,14
2018-02-07T03:55:37.247Z,14.1
2018-02-07T03:56:39.727Z,14.1
2018-02-07T03:57:42.242Z,14
2018-02-07T03:58:44.676Z,13.9
2018-02-07T03:59:47.193Z,13.9
2018-02-07T04:00:49.708Z,13.8
2018-02-07T04:01:52.190Z,13.9
2018-02-07T04:02:54.638Z,13.9
2018-02-07T04:03:57.165Z,14
2018-02-07T04:04:59.662Z,14
2018-02-07T04:06:02.497Z,14
2018-02-07T04:07:05.089Z,14
2018-02-07T04:08:07.550Z,13.9
2018-02-07T04:09:10.078Z,13.8
2018-02-07T04:10:12.604Z,13.8
2018-02-07T04:11:15.414Z,13.8
2018-02-07T04:12:17.838Z,13.7
2018-02-07T04:13:20.339Z,13.7
2018-02-07T04:14:22.732Z,13.7
2018-02-07T04:15:25.293Z,13.6
2018-02-07T04:16:27.826Z,13.7
2018-02-07T04:17:30.278Z,13.7
2018-02-07T04:18:32.699Z,13.7
2018-02-07T04:19:35.233Z,13.6
2018-02-07T04:20:37.681Z,13.6
2018-02-07T04:21:40.193Z,13.5
2018-02-07T04:22:42.680Z,13.5
2018-02-07T04:23:50.770Z,13.4
2018-02-07T04:24:53.404Z,13.3
2018-02-07T04:25:55.859Z,13.3
2018-02-07T04:26:58.382Z,13.3
2018-02-07T04:28:00.834Z,13.2
2018-02-07T04:29:03.622Z,13.3
2018-02-07T04:30:06.104Z,13.3
2018-02-07T04:31:08.664Z,13.3
2018-02-07T04:32:11.216Z,13.3
2018-02-07T04:33:13.799Z,13.1
2018-02-07T04:34:16.285Z,12.9
2018-02-07T04:35:18.834Z,13.2
2018-02-07T04:36:21.320Z,13.3
2018-02-07T04:37:23.885Z,13.5
2018-02-07T04:38:26.354Z,13.6
2018-02-07T04:39:28.882Z,13.6
2018-02-07T04:40:31.316Z,13.6
2018-02-07T04:41:33.891Z,13.8
2018-02-07T04:42:36.524Z,13.7
2018-02-07T04:43:38.949Z,13.7
2018-02-07T04:44:41.357Z,13.7
2018-02-07T04:45:43.870Z,13.8
2018-02-07T04:46:46.350Z,13.9
2018-02-07T04:47:48.875Z,13.9
2018-02-07T04:48:51.283Z,14
2018-02-07T04:49:53.829Z,13.9
2018-02-07T04:50:56.296Z,14.1
2018-02-07T04:51:58.745Z,14.1
2018-02-07T04:53:01.324Z,14.2
2018-02-07T04:54:07.047Z,14.3
2018-02-07T04:55:09.510Z,14.3
2018-02-07T04:56:12.015Z,14.4
2018-02-07T04:57:14.549Z,14.5
2018-02-07T04:58:17.111Z,14.5
2018-02-07T04:59:19.567Z,14.6
2018-02-07T05:00:22.073Z,14.7
2018-02-07T05:01:24.574Z,14.9
2018-02-07T05:02:27.041Z,15
2018-02-07T05:03:29.528Z,15
2018-02-07T05:04:32.046Z,15
2018-02-07T05:05:34.546Z,15
2018-02-07T05:06:37.012Z,15
2018-02-07T05:07:39.488Z,15
2018-02-07T05:08:41.969Z,15
2018-02-07T05:09:44.428Z,14.9
2018-02-07T05:10:46.875Z,14.9
2018-02-07T05:11:49.299Z,14.8
2018-02-07T05:12:55.128Z,14.8
2018-02-07T05:13:57.691Z,14.8
2018-02-07T05:15:00.137Z,14.9
2018-02-07T05:16:02.785Z,14.8
2018-02-07T05:17:05.375Z,14.8
2018-02-07T05:18:07.866Z,14.8
2018-02-07T05:19:10.422Z,14.7
2018-02-07T05:20:12.988Z,14.8
2018-02-07T05:21:15.493Z,14.8
2018-02-07T05:22:17.995Z,14.7
2018-02-07T05:23:20.444Z,14.6
2018-02-07T05:24:23.016Z,14.7
2018-02-07T05:25:25.850Z,14.7
2018-02-07T05:26:28.302Z,14.6
2018-02-07T05:27:30.720Z,14.6
2018-02-07T05:28:33.181Z,14.6
2018-02-07T05:29:35.714Z,14.5
2018-02-07T05:30:38.188Z,14.5
2018-02-07T05:31:40.702Z,14.4
2018-02-07T05:32:43.206Z,14.4
2018-02-07T05:33:45.625Z,14.4
2018-02-07T05:34:48.090Z,14.2
2018-02-07T05:35:50.587Z,14.1
2018-02-07T05:36:53.012Z,14
2018-02-07T05:37:55.629Z,14
2018-02-07T05:38:58.793Z,14
2018-02-07T05:40:01.302Z,13.9
2018-02-07T05:41:03.929Z,13.9
2018-02-07T05:42:06.635Z,13.8
2018-02-07T05:43:09.138Z,13.7
2018-02-07T05:44:11.628Z,13.6
2018-02-07T05:45:14.497Z,13.6
2018-02-07T05:46:16.967Z,13.4
2018-02-07T05:47:19.399Z,13.4
2018-02-07T05:48:21.884Z,13.4
2018-02-07T05:49:24.349Z,13.5
2018-02-07T05:50:26.832Z,13.7
2018-02-07T05:51:29.272Z,13.7
2018-02-07T05:52:31.897Z,13.7
2018-02-07T05:53:34.466Z,13.7
2018-02-07T05:54:36.958Z,13.6
2018-02-07T05:55:39.412Z,13.6
2018-02-07T05:56:41.891Z,13.6
2018-02-07T05:57:44.454Z,13.5
2018-02-07T05:58:46.977Z,13.5
2018-02-07T05:59:49.513Z,13.4
2018-02-07T06:00:52.133Z,13.5
2018-02-07T06:01:54.715Z,13.6
2018-02-07T06:02:57.278Z,13.5
2018-02-07T06:03:59.724Z,13.4
2018-02-07T06:05:02.268Z,13.5
2018-02-07T06:06:04.882Z,13.4
2018-02-07T06:07:07.405Z,13.5
2018-02-07T06:08:09.905Z,13.4
2018-02-07T06:09:12.418Z,13.3
2018-02-07T06:10:14.935Z,13.1
2018-02-07T06:11:19.240Z,13
2018-02-07T06:12:21.745Z,13.1
2018-02-07T06:13:28.968Z,13
2018-02-07T06:14:31.639Z,13
2018-02-07T06:15:34.251Z,13.1
2018-02-07T06:16:37.001Z,12.8
2018-02-07T06:17:39.511Z,13.1
2018-02-07T06:18:42.072Z,13.2
2018-02-07T06:19:44.551Z,13.4
2018-02-07T06:20:47.073Z,13.5
2018-02-07T06:21:49.584Z,13.4
2018-02-07T06:22:52.100Z,13.4
2018-02-07T06:23:54.687Z,13.5
2018-02-07T06:24:57.202Z,13.5
2018-02-07T06:25:59.709Z,13.6
2018-02-07T06:27:02.264Z,13.7
2018-02-07T06:28:05.887Z,13.9
2018-02-07T06:29:13.796Z,14.1
2018-02-07T06:30:16.442Z,14.3
2018-02-07T06:31:19.086Z,14.3
2018-02-07T06:32:21.693Z,14.3
2018-02-07T06:33:24.375Z,14.2
2018-02-07T06:34:26.846Z,14.4
2018-02-07T06:35:33.616Z,14.5
2018-02-07T06:36:36.168Z,14.5
2018-02-07T06:37:38.694Z,14.5
2018-02-07T06:38:41.331Z,14.6
2018-02-07T06:39:43.844Z,14.7
2018-02-07T06:40:46.488Z,14.9
2018-02-07T06:41:54.393Z,14.9
2018-02-07T06:42:56.944Z,14.9
2018-02-07T06:43:59.372Z,14.9
2018-02-07T06:45:01.909Z,14.9
2018-02-07T06:46:05.324Z,15.2
2018-02-07T06:47:07.942Z,15.2
2018-02-07T06:48:15.523Z,15.2
2018-02-07T06:49:18.004Z,15.4
2018-02-07T06:50:20.519Z,15.4
2018-02-07T06:51:23.067Z,15.3
2018-02-07T06:52:30.060Z,15.2
2018-02-07T06:53:32.940Z,15.3
2018-02-07T06:54:35.529Z,15.3
2018-02-07T06:55:42.827Z,15.3
2018-02-07T06:56:45.512Z,15.2
2018-02-07T06:57:48.034Z,15.2
2018-02-07T06:58:50.524Z,15.3
2018-02-07T06:59:53.151Z,15.2
2018-02-07T07:00:55.839Z,15.1
2018-02-07T07:01:58.520Z,15.2
2018-02-07T07:03:01.027Z,15.2
2018-02-07T07:04:03.521Z,15.2
2018-02-07T07:05:06.155Z,15.1
2018-02-07T07:06:08.725Z,15.1
2018-02-07T07:07:11.331Z,15.2
2018-02-07T07:08:13.884Z,15.1
2018-02-07T07:09:16.481Z,15.1
2018-02-07T07:10:19.106Z,15.1
2018-02-07T07:11:25.475Z,15
2018-02-07T07:12:28.049Z,15
2018-02-07T07:13:30.534Z,14.9
2018-02-07T07:14:33.048Z,14.9
2018-02-07T07:15:35.799Z,14.9
2018-02-07T07:16:38.330Z,14.9
2018-02-07T07:17:40.793Z,14.9
2018-02-07T07:18:43.339Z,14.8
2018-02-07T07:19:45.946Z,14.7
2018-02-07T07:20:48.535Z,14.5
2018-02-07T07:21:50.954Z,14.5
2018-02-07T07:22:53.385Z,14.5
2018-02-07T07:23:55.983Z,14.4
2018-02-07T07:24:58.611Z,14.4
2018-02-07T07:26:01.104Z,14.2
2018-02-07T07:27:03.597Z,14.3
2018-02-07T07:28:09.156Z,14.2
2018-02-07T07:29:12.145Z,14.1
2018-02-07T07:30:14.807Z,14.1
2018-02-07T07:31:17.254Z,13.9
2018-02-07T07:32:19.722Z,13.8
2018-02-07T07:33:22.103Z,13.6
2018-02-07T07:34:24.609Z,13.6
2018-02-07T07:35:27.086Z,13.6
2018-02-07T07:36:29.501Z,13.8
2018-02-07T07:37:32.617Z,13.8
2018-02-07T07:38:35.150Z,13.8
2018-02-07T07:39:37.602Z,13.9
2018-02-07T07:40:40.119Z,13.8
2018-02-07T07:41:42.580Z,13.8
2018-02-07T07:42:45.103Z,13.9
2018-02-07T07:43:47.580Z,13.9
2018-02-07T07:44:50.135Z,13.8
2018-02-07T07:45:52.683Z,13.8
2018-02-07T07:46:55.226Z,13.7
2018-02-07T07:47:57.699Z,13.6
2018-02-07T07:49:00.281Z,13.7
2018-02-07T07:50:02.864Z,13.6
2018-02-07T07:51:05.447Z,13.7
2018-02-07T07:52:07.909Z,13.7
2018-02-07T07:53:10.337Z,13.7
2018-02-07T07:54:12.777Z,13.7
2018-02-07T07:55:15.330Z,13.7
2018-02-07T07:56:17.851Z,13.8
2018-02-07T07:57:20.304Z,13.6
2018-02-07T07:58:22.782Z,13.5
2018-02-07T07:59:25.320Z,13.3
2018-02-07T08:00:27.888Z,13.3
2018-02-07T08:01:31.643Z,13.3
2018-02-07T08:02:34.321Z,13.3
2018-02-07T08:03:36.930Z,13.2
2018-02-07T08:04:50.269Z,13.3
2018-02-07T08:05:52.769Z,13.3
2018-02-07T08:06:55.309Z,13.3
2018-02-07T08:07:57.927Z,13.4
2018-02-07T08:09:00.536Z,13.2
2018-02-07T08:10:03.091Z,13.2
2018-02-07T08:11:05.654Z,13.2
2018-02-07T08:12:08.242Z,13.2
2018-02-07T08:13:10.740Z,13.1
2018-02-07T08:14:13.188Z,13.1
2018-02-07T08:15:15.739Z,13.1
2018-02-07T08:16:22.280Z,13
2018-02-07T08:17:24.738Z,13.1
2018-02-07T08:18:27.343Z,13.3
2018-02-07T08:19:29.768Z,13.4
2018-02-07T08:20:32.295Z,13.6
2018-02-07T08:21:35.495Z,13.7
2018-02-07T08:22:38.039Z,13.6
2018-02-07T08:23:40.522Z,13.7
2018-02-07T08:24:42.941Z,13.9
2018-02-07T08:25:45.572Z,14
2018-02-07T08:26:48.175Z,14
2018-02-07T08:27:50.712Z,14.3
2018-02-07T08:28:53.382Z,14.4
2018-02-07T08:29:55.847Z,14.5
2018-02-07T08:30:58.387Z,14.5
2018-02-07T08:32:05.811Z,14.7
2018-02-07T08:33:08.315Z,14.9
2018-02-07T08:34:10.795Z,14.9
2018-02-07T08:35:13.266Z,15.1
2018-02-07T08:36:15.840Z,15.1
2018-02-07T08:37:18.619Z,15.2
2018-02-07T08:38:21.395Z,15.2
2018-02-07T08:39:23.826Z,15.3
2018-02-07T08:40:26.360Z,15.4
2018-02-07T08:41:28.912Z,15.4
2018-02-07T08:42:31.432Z,15.4
2018-02-07T08:43:33.903Z,15.3
2018-02-07T08:44:36.464Z,15.3
2018-02-07T08:45:38.939Z,15.4
2018-02-07T08:46:41.405Z,15.4
2018-02-07T08:47:44.010Z,15.4
2018-02-07T08:48:46.628Z,15.3
2018-02-07T08:49:49.109Z,15.4
2018-02-07T08:50:54.591Z,15.4
2018-02-07T08:51:57.203Z,15.3
2018-02-07T08:52:59.953Z,15.4
2018-02-07T08:54:02.535Z,15.4
2018-02-07T08:55:05.200Z,15.4
2018-02-07T08:56:07.743Z,15.4
2018-02-07T08:57:10.346Z,15.4
2018-02-07T08:58:12.841Z,15.4
2018-02-07T08:59:15.421Z,15.4
2018-02-07T09:00:18.109Z,15.4
2018-02-07T09:01:20.601Z,15.2
2018-02-07T09:02:23.141Z,15.2
2018-02-07T09:03:25.749Z,15.3
2018-02-07T09:04:28.325Z,15.3
2018-02-07T09:05:30.864Z,15.2
2018-02-07T09:06:33.417Z,15.4
2018-02-07T09:07:35.990Z,15.3
2018-02-07T09:08:39.501Z,15.2
2018-02-07T09:09:42.133Z,15.2
2018-02-07T09:10:44.654Z,15.1
2018-02-07T09:11:47.267Z,15.1
2018-02-07T09:12:57.080Z,15.1
2018-02-07T09:13:59.664Z,15
2018-02-07T09:15:02.211Z,15
2018-02-07T09:16:04.696Z,15.1
2018-02-07T09:17:07.293Z,15.1
2018-02-07T09:18:09.774Z,14.9
2018-02-07T09:19:12.285Z,15
2018-02-07T09:20:15.405Z,14.9
2018-02-07T09:21:18.541Z,14.8
2018-02-07T09:22:21.023Z,14.8
2018-02-07T09:23:23.554Z,14.8
2018-02-07T09:24:26.118Z,14.8
2018-02-07T09:25:28.655Z,14.7
2018-02-07T09:26:31.232Z,14.6
2018-02-07T09:27:33.684Z,14.6
2018-02-07T09:28:36.237Z,14.5
2018-02-07T09:29:38.850Z,14.3
2018-02-07T09:30:41.631Z,14.3
2018-02-07T09:31:44.188Z,14.2
2018-02-07T09:32:46.733Z,14.1
2018-02-07T09:33:49.286Z,14.2
2018-02-07T09:34:51.809Z,14.3
2018-02-07T09:35:54.361Z,14.3
2018-02-07T09:36:57.121Z,14.4
2018-02-07T09:37:59.576Z,14.5
2018-02-07T09:39:02.482Z,14.5
2018-02-07T09:40:04.970Z,14.5
2018-02-07T09:41:07.795Z,14.5
2018-02-07T09:42:10.336Z,14.5
2018-02-07T09:43:18.332Z,14.3
2018-02-07T09:44:20.854Z,14.4
2018-02-07T09:45:23.321Z,14.3
2018-02-07T09:46:25.913Z,14.3
2018-02-07T09:47:28.448Z,14.4
2018-02-07T09:48:30.951Z,14.4
2018-02-07T09:49:33.423Z,14.5
2018-02-07T09:50:36.074Z,14.5
2018-02-07T09:51:38.592Z,14.5
2018-02-07T09:52:45.344Z,14.5
2018-02-07T09:53:52.562Z,14.6
2018-02-07T09:54:55.058Z,14.6
2018-02-07T09:55:57.714Z,14.6
2018-02-07T09:57:00.288Z,14.4
2018-02-07T09:58:02.994Z,14.3
2018-02-07T09:59:13.111Z,14.3
2018-02-07T10:00:15.619Z,14.3
2018-02-07T10:01:22.954Z,14.4
2018-02-07T10:02:25.607Z,14.3
2018-02-07T10:03:28.172Z,14.4
2018-02-07T10:04:30.740Z,14.5
2018-02-07T10:05:33.245Z,14.5
2018-02-07T10:06:35.818Z,14.5
2018-02-07T10:07:38.408Z,14.5
2018-02-07T10:08:40.864Z,14.5
2018-02-07T10:09:43.288Z,14.5
2018-02-07T10:10:45.964Z,14.4
2018-02-07T10:11:48.518Z,14.4
2018-02-07T10:12:51.427Z,14.3
2018-02-07T10:13:53.986Z,14.3
2018-02-07T10:14:56.513Z,14.4
2018-02-07T10:15:58.937Z,14.3
2018-02-07T10:17:01.429Z,14.3
2018-02-07T10:18:03.957Z,14.4
2018-02-07T10:19:06.432Z,14.6
2018-02-07T10:20:09.036Z,14.6
2018-02-07T10:21:11.498Z,14.8
2018-02-07T10:22:13.986Z,14.9
2018-02-07T10:23:16.586Z,14.8
2018-02-07T10:24:19.096Z,15.1
2018-02-07T10:25:22.211Z,15.2
2018-02-07T10:26:24.715Z,15.4
2018-02-07T10:27:27.373Z,15.6
2018-02-07T10:28:30.009Z,15.7
2018-02-07T10:29:32.492Z,15.6
2018-02-07T10:30:35.015Z,15.7
2018-02-07T10:31:38.259Z,15.7
2018-02-07T10:32:40.712Z,15.9
2018-02-07T10:33:43.384Z,16
2018-02-07T10:34:45.890Z,16.2
2018-02-07T10:35:48.400Z,16.3
2018-02-07T10:36:50.924Z,16.5
2018-02-07T10:37:54.002Z,16.4
2018-02-07T10:38:56.587Z,16.5
2018-02-07T10:39:59.144Z,16.6
2018-02-07T10:41:01.905Z,16.6
2018-02-07T10:42:04.528Z,16.7
2018-02-07T10:43:07.082Z,16.7
2018-02-07T10:44:09.654Z,16.8
2018-02-07T10:45:12.200Z,16.7
2018-02-07T10:46:14.709Z,16.6
2018-02-07T10:47:17.295Z,16.7
2018-02-07T10:48:19.825Z,16.7
2018-02-07T10:49:22.464Z,16.8
2018-02-07T10:50:25.614Z,16.9
2018-02-07T10:51:28.229Z,16.8
2018-02-07T10:52:30.739Z,16.8
2018-02-07T10:53:33.256Z,16.7
2018-02-07T10:54:35.894Z,16.8
2018-02-07T10:55:38.395Z,16.7
2018-02-07T10:56:40.914Z,16.7
2018-02-07T10:57:43.385Z,16.6
2018-02-07T10:58:46.013Z,16.7
2018-02-07T10:59:48.541Z,16.7
2018-02-07T11:00:51.014Z,16.7
2018-02-07T11:01:56.339Z,16.7
2018-02-07T11:02:58.912Z,16.7
2018-02-07T11:04:01.442Z,16.7
2018-02-07T11:05:04.094Z,16.6
2018-02-07T11:06:06.916Z,16.6
2018-02-07T11:07:09.954Z,16.6
2018-02-07T11:08:12.489Z,16.7
2018-02-07T11:09:14.937Z,16.6
2018-02-07T11:10:17.449Z,16.6
2018-02-07T11:11:19.980Z,16.7
2018-02-07T11:12:22.505Z,16.7
2018-02-07T11:13:25.009Z,16.7
2018-02-07T11:14:27.636Z,16.6
2018-02-07T11:15:30.252Z,16.6
2018-02-07T11:16:32.743Z,16.5
2018-02-07T11:17:35.274Z,16.6
2018-02-07T11:18:38.177Z,16.5
2018-02-07T11:19:50.031Z,16.4
2018-02-07T11:20:52.566Z,16.5
2018-02-07T11:21:55.101Z,16.5
2018-02-07T11:22:57.655Z,16.5
2018-02-07T11:24:00.074Z,16.5
2018-02-07T11:25:02.823Z,16.3
2018-02-07T11:26:05.724Z,16.4
2018-02-07T11:27:08.374Z,16.3
2018-02-07T11:28:10.968Z,16.3
2018-02-07T11:29:13.492Z,16.1
2018-02-07T11:30:17.223Z,16.2
2018-02-07T11:31:19.817Z,16
2018-02-07T11:32:22.446Z,16.1
2018-02-07T11:33:24.941Z,16.1
2018-02-07T11:34:27.538Z,15.9
2018-02-07T11:35:30.000Z,15.9
2018-02-07T11:36:32.951Z,15.9
2018-02-07T11:37:39.022Z,15.9
2018-02-07T11:38:42.001Z,15.8
2018-02-07T11:39:44.635Z,15.8
2018-02-07T11:40:47.277Z,15.7
2018-02-07T11:41:49.861Z,15.8
2018-02-07T11:42:52.517Z,15.7
2018-02-07T11:43:55.020Z,15.8
2018-02-07T11:44:57.912Z,15.9
2018-02-07T11:46:00.418Z,15.9
2018-02-07T11:47:03.837Z,16
2018-02-07T11:48:06.500Z,16
2018-02-07T11:49:09.127Z,15.9
2018-02-07T11:50:11.810Z,15.9
2018-02-07T11:51:14.518Z,16.1
2018-02-07T11:52:17.185Z,16.1
2018-02-07T11:53:19.800Z,16.1
2018-02-07T11:54:22.294Z,16
2018-02-07T11:55:24.904Z,15.9
2018-02-07T11:56:27.463Z,16
2018-02-07T11:57:30.007Z,16
2018-02-07T11:58:32.546Z,15.8
2018-02-07T11:59:35.010Z,16
2018-02-07T12:00:37.804Z,16.1
2018-02-07T12:01:40.350Z,16.1
2018-02-07T12:02:42.921Z,16.1
2018-02-07T12:03:45.454Z,16.1
2018-02-07T12:04:48.048Z,16.1
2018-02-07T12:05:50.731Z,16.1
2018-02-07T12:06:53.345Z,16.1
2018-02-07T12:07:56.212Z,16.1
2018-02-07T12:08:58.781Z,16
2018-02-07T12:10:01.803Z,16.1
2018-02-07T12:11:04.310Z,16.1
2018-02-07T12:12:06.978Z,16.2
2018-02-07T12:13:10.210Z,16.1
2018-02-07T12:14:13.176Z,16.1
2018-02-07T12:15:15.791Z,16.1
2018-02-07T12:16:23.945Z,16.1
2018-02-07T12:17:28.056Z,16
2018-02-07T12:18:36.615Z,16.1
2018-02-07T12:19:39.250Z,16.2
2018-02-07T12:20:41.951Z,16.1
2018-02-07T12:21:49.401Z,16.2
2018-02-07T12:22:51.995Z,16.1
2018-02-07T12:23:54.510Z,15.9
2018-02-07T12:24:57.042Z,16.1
2018-02-07T12:25:59.601Z,16.1
2018-02-07T12:27:06.562Z,16.1
2018-02-07T12:28:10.443Z,16.1
2018-02-07T12:29:13.089Z,16
2018-02-07T12:30:16.862Z,16
2018-02-07T12:31:19.392Z,16
2018-02-07T12:32:21.967Z,16
2018-02-07T12:33:26.183Z,16
2018-02-07T12:34:28.949Z,16
2018-02-07T12:35:31.680Z,16
2018-02-07T12:36:34.269Z,16.1
2018-02-07T12:37:41.800Z,15.9
2018-02-07T12:38:44.348Z,16
2018-02-07T12:39:46.961Z,16.1
2018-02-07T12:40:49.451Z,16
2018-02-07T12:41:52.091Z,16
2018-02-07T12:42:54.629Z,16
2018-02-07T12:43:57.550Z,16
2018-02-07T12:45:00.562Z,16
2018-02-07T12:46:03.295Z,16
2018-02-07T12:47:09.251Z,16
2018-02-07T12:48:11.941Z,16
2018-02-07T12:49:14.494Z,15.9
2018-02-07T12:50:17.066Z,16
2018-02-07T12:51:19.657Z,16
2018-02-07T12:52:22.165Z,16
2018-02-07T12:53:24.697Z,16
2018-02-07T12:54:27.255Z,16
2018-02-07T12:55:30.204Z,16
2018-02-07T12:56:32.651Z,16
2018-02-07T12:57:35.155Z,16
2018-02-07T12:58:37.681Z,16
2018-02-07T12:59:40.207Z,16
2018-02-07T13:00:42.699Z,16
2018-02-07T13:01:45.194Z,15.9
2018-02-07T13:02:47.776Z,16
2018-02-07T13:03:50.330Z,16
2018-02-07T13:04:52.805Z,16
2018-02-07T13:05:55.340Z,15.9
2018-02-07T13:06:57.894Z,15.9
2018-02-07T13:08:00.428Z,15.9
2018-02-07T13:09:02.937Z,15.9
2018-02-07T13:10:05.595Z,15.8
2018-02-07T13:11:08.132Z,15.9
2018-02-07T13:12:10.635Z,15.9
2018-02-07T13:13:13.158Z,15.9
2018-02-07T13:14:15.772Z,15.8
2018-02-07T13:15:18.454Z,15.8
2018-02-07T13:16:21.042Z,15.9
2018-02-07T13:17:24.339Z,15.8
2018-02-07T13:18:26.909Z,15.9
2018-02-07T13:19:29.509Z,15.8
2018-02-07T13:20:32.025Z,15.8
2018-02-07T13:21:34.851Z,15.7
2018-02-07T13:22:37.441Z,15.7
2018-02-07T13:23:39.924Z,15.6
2018-02-07T13:24:42.455Z,15.8
2018-02-07T13:25:45.442Z,15.8
2018-02-07T13:26:48.487Z,15.8
2018-02-07T13:27:51.056Z,15.8
2018-02-07T13:28:53.597Z,15.7
2018-02-07T13:29:56.153Z,15.7
2018-02-07T13:30:58.970Z,15.7
2018-02-07T13:32:01.689Z,15.6
2018-02-07T13:33:04.148Z,15.6
2018-02-07T13:34:06.753Z,15.7
2018-02-07T13:35:09.289Z,15.7
2018-02-07T13:36:11.735Z,15.7
2018-02-07T13:37:14.198Z,15.7
2018-02-07T13:38:16.714Z,15.7
2018-02-07T13:39:19.177Z,15.6
2018-02-07T13:40:21.709Z,15.6
2018-02-07T13:41:24.166Z,15.6
2018-02-07T13:42:26.849Z,15.6
2018-02-07T13:43:29.328Z,15.6
2018-02-07T13:44:31.861Z,15.6
2018-02-07T13:45:34.376Z,15.5
2018-02-07T13:46:37.079Z,15.4
2018-02-07T13:47:39.555Z,15.5
2018-02-07T13:48:42.106Z,15.5
2018-02-07T13:49:44.600Z,15.5
2018-02-07T13:50:47.269Z,15.5
2018-02-07T13:51:49.712Z,15.4
2018-02-07T13:52:52.251Z,15.4
2018-02-07T13:53:54.737Z,15.4
2018-02-07T13:54:57.361Z,15.4
2018-02-07T13:55:59.890Z,15.4
2018-02-07T13:57:06.357Z,15.4
2018-02-07T13:58:08.877Z,15.4
2018-02-07T13:59:12.526Z,15.3
2018-02-07T14:00:15.142Z,15.2
2018-02-07T14:01:17.753Z,15.2
2018-02-07T14:02:20.893Z,15.3